sensor_id;sensor_type;location;lat;lon;timestamp;pressure;altitude;pressure_sealevel;temperature;humidity
62402;BME280;48440;51.224;22.506;2023-11-21T00:01:39;98402.56;;;1.78;88.57
62402;BME280;48440;51.224;22.506;2023-11-21T00:04:05;98395.41;;;1.72;88.68
62402;BME280;48440;51.224;22.506;2023-11-21T00:06:32;98392.53;;;1.73;89.27
62402;BME280;48440;51.224;22.506;2023-11-21T00:08:58;98389.69;;;1.68;89.41
62402;BME280;48440;51.224;22.506;2023-11-21T00:11:23;98399.34;;;1.69;89.77
62402;BME280;48440;51.224;22.506;2023-11-21T00:13:50;98396.47;;;1.70;89.15
62402;BME280;48440;51.224;22.506;2023-11-21T00:16:16;98394.59;;;1.71;89.21
62402;BME280;48440;51.224;22.506;2023-11-21T00:18:41;98395.63;;;1.70;89.81
62402;BME280;48440;51.224;22.506;2023-11-21T00:21:08;98402.41;;;1.73;89.54
62402;BME280;48440;51.224;22.506;2023-11-21T00:23:34;98399.13;;;1.70;89.16
62402;BME280;48440;51.224;22.506;2023-11-21T00:26:00;98396.03;;;1.74;89.31
62402;BME280;48440;51.224;22.506;2023-11-21T00:28:26;98399.94;;;1.71;88.22
62402;BME280;48440;51.224;22.506;2023-11-21T00:30:52;98397.72;;;1.68;88.74
62402;BME280;48440;51.224;22.506;2023-11-21T00:33:17;98403.28;;;1.66;88.57
62402;BME280;48440;51.224;22.506;2023-11-21T00:35:42;98405.97;;;1.66;88.46
62402;BME280;48440;51.224;22.506;2023-11-21T00:38:08;98405.75;;;1.68;88.69
62402;BME280;48440;51.224;22.506;2023-11-21T00:40:34;98407.22;;;1.64;88.36
62402;BME280;48440;51.224;22.506;2023-11-21T00:42:59;98410.91;;;1.63;88.64
62402;BME280;48440;51.224;22.506;2023-11-21T00:45:25;98417.09;;;1.63;88.58
62402;BME280;48440;51.224;22.506;2023-11-21T00:47:51;98419.16;;;1.61;88.16
62402;BME280;48440;51.224;22.506;2023-11-21T00:50:16;98420.41;;;1.59;88.55
62402;BME280;48440;51.224;22.506;2023-11-21T00:52:41;98414.41;;;1.63;88.80
62402;BME280;48440;51.224;22.506;2023-11-21T00:55:07;98417.31;;;1.62;88.35
62402;BME280;48440;51.224;22.506;2023-11-21T00:57:34;98408.84;;;1.65;88.48
62402;BME280;48440;51.224;22.506;2023-11-21T00:59:59;98418.34;;;1.61;88.52
62402;BME280;48440;51.224;22.506;2023-11-21T01:02:25;98414.84;;;1.60;87.95
62402;BME280;48440;51.224;22.506;2023-11-21T01:04:51;98415.06;;;1.59;88.41
62402;BME280;48440;51.224;22.506;2023-11-21T01:07:16;98405.19;;;1.59;88.43
62402;BME280;48440;51.224;22.506;2023-11-21T01:09:42;98415.06;;;1.59;88.52
62402;BME280;48440;51.224;22.506;2023-11-21T01:12:09;98407.94;;;1.53;88.18
62402;BME280;48440;51.224;22.506;2023-11-21T01:14:34;98409.13;;;1.57;88.42
62402;BME280;48440;51.224;22.506;2023-11-21T01:17:01;98410.97;;;1.56;88.57
62402;BME280;48440;51.224;22.506;2023-11-21T01:19:27;98408.91;;;1.58;88.40
62402;BME280;48440;51.224;22.506;2023-11-21T01:21:54;98418.19;;;1.56;88.43
62402;BME280;48440;51.224;22.506;2023-11-21T01:24:19;98414.09;;;1.53;88.39
62402;BME280;48440;51.224;22.506;2023-11-21T01:26:44;98411.56;;;1.58;88.44
62402;BME280;48440;51.224;22.506;2023-11-21T01:29:12;98422.47;;;1.57;87.89
62402;BME280;48440;51.224;22.506;2023-11-21T01:31:37;98419.47;;;1.53;87.96
62402;BME280;48440;51.224;22.506;2023-11-21T01:34:02;98413.94;;;1.48;88.18
62402;BME280;48440;51.224;22.506;2023-11-21T01:36:32;98407.97;;;1.46;88.08
62402;BME280;48440;51.224;22.506;2023-11-21T01:38:57;98412.13;;;1.42;88.63
62402;BME280;48440;51.224;22.506;2023-11-21T01:41:27;98411.53;;;1.40;88.49
62402;BME280;48440;51.224;22.506;2023-11-21T01:43:54;98413.38;;;1.40;88.48
62402;BME280;48440;51.224;22.506;2023-11-21T01:46:20;98410.69;;;1.40;88.75
62402;BME280;48440;51.224;22.506;2023-11-21T01:48:47;98403.13;;;1.36;88.75
62402;BME280;48440;51.224;22.506;2023-11-21T01:51:13;98408.03;;;1.40;88.71
62402;BME280;48440;51.224;22.506;2023-11-21T01:53:39;98398.38;;;1.39;88.47
62402;BME280;48440;51.224;22.506;2023-11-21T01:56:05;98401.66;;;1.41;88.81
62402;BME280;48440;51.224;22.506;2023-11-21T01:58:33;98397.72;;;1.43;88.94
62402;BME280;48440;51.224;22.506;2023-11-21T02:00:59;98407.81;;;1.41;88.74
62402;BME280;48440;51.224;22.506;2023-11-21T02:03:24;98413.75;;;1.43;88.52
62402;BME280;48440;51.224;22.506;2023-11-21T02:05:52;98412.94;;;1.43;88.73
62402;BME280;48440;51.224;22.506;2023-11-21T02:08:18;98413.38;;;1.40;88.13
62402;BME280;48440;51.224;22.506;2023-11-21T02:10:45;98420.34;;;1.41;88.77
62402;BME280;48440;51.224;22.506;2023-11-21T02:13:10;98415.22;;;1.39;88.35
62402;BME280;48440;51.224;22.506;2023-11-21T02:15:36;98421.22;;;1.34;88.46
62402;BME280;48440;51.224;22.506;2023-11-21T02:18:04;98426.13;;;1.38;88.93
62402;BME280;48440;51.224;22.506;2023-11-21T02:20:31;98428.59;;;1.39;89.02
62402;BME280;48440;51.224;22.506;2023-11-21T02:23:00;98431.88;;;1.41;88.73
62402;BME280;48440;51.224;22.506;2023-11-21T02:25:26;98427.13;;;1.43;88.71
62402;BME280;48440;51.224;22.506;2023-11-21T02:27:56;98443.38;;;1.42;88.46
62402;BME280;48440;51.224;22.506;2023-11-21T02:30:22;98446.91;;;1.35;88.29
62402;BME280;48440;51.224;22.506;2023-11-21T02:32:48;98448.34;;;1.38;88.81
62402;BME280;48440;51.224;22.506;2023-11-21T02:35:14;98460.47;;;1.41;88.53
62402;BME280;48440;51.224;22.506;2023-11-21T02:37:41;98461.50;;;1.40;88.85
62402;BME280;48440;51.224;22.506;2023-11-21T02:40:09;98454.50;;;1.39;88.79
62402;BME280;48440;51.224;22.506;2023-11-21T02:42:35;98463.13;;;1.41;88.10
62402;BME280;48440;51.224;22.506;2023-11-21T02:45:00;98454.28;;;1.40;87.99
62402;BME280;48440;51.224;22.506;2023-11-21T02:47:26;98463.13;;;1.41;88.85
62402;BME280;48440;51.224;22.506;2023-11-21T02:49:51;98452.66;;;1.39;88.34
62402;BME280;48440;51.224;22.506;2023-11-21T02:52:18;98455.94;;;1.41;88.22
62402;BME280;48440;51.224;22.506;2023-11-21T02:54:44;98449.97;;;1.39;88.40
62402;BME280;48440;51.224;22.506;2023-11-21T02:57:10;98457.56;;;1.42;88.14
62402;BME280;48440;51.224;22.506;2023-11-21T02:59:35;98450.59;;;1.41;88.01
62402;BME280;48440;51.224;22.506;2023-11-21T03:02:01;98462.31;;;1.40;88.43
62402;BME280;48440;51.224;22.506;2023-11-21T03:04:26;98463.97;;;1.41;87.78
62402;BME280;48440;51.224;22.506;2023-11-21T03:06:51;98462.34;;;1.33;87.87
62402;BME280;48440;51.224;22.506;2023-11-21T03:09:17;98457.69;;;1.29;87.74
62402;BME280;48440;51.224;22.506;2023-11-21T03:11:42;98463.84;;;1.29;88.10
62402;BME280;48440;51.224;22.506;2023-11-21T03:14:08;98461.38;;;1.28;87.98
62402;BME280;48440;51.224;22.506;2023-11-21T03:16:33;98453.97;;;1.30;87.99
62402;BME280;48440;51.224;22.506;2023-11-21T03:18:59;98452.09;;;1.30;88.40
62402;BME280;48440;51.224;22.506;2023-11-21T03:21:24;98445.13;;;1.29;88.02
62402;BME280;48440;51.224;22.506;2023-11-21T03:23:51;98456.25;;;1.26;88.15
62402;BME280;48440;51.224;22.506;2023-11-21T03:26:18;98464.47;;;1.25;87.89
62402;BME280;48440;51.224;22.506;2023-11-21T03:28:43;98465.31;;;1.25;88.03
62402;BME280;48440;51.224;22.506;2023-11-21T03:31:08;98461.81;;;1.25;88.33
62402;BME280;48440;51.224;22.506;2023-11-21T03:33:35;98463.25;;;1.27;88.28
62402;BME280;48440;51.224;22.506;2023-11-21T03:36:01;98463.84;;;1.29;88.06
62402;BME280;48440;51.224;22.506;2023-11-21T03:38:26;98467.34;;;1.30;88.17
62402;BME280;48440;51.224;22.506;2023-11-21T03:40:51;98474.53;;;1.29;87.59
62402;BME280;48440;51.224;22.506;2023-11-21T03:43:17;98479.50;;;1.26;87.58
62402;BME280;48440;51.224;22.506;2023-11-21T03:45:42;98482.59;;;1.23;87.56
62402;BME280;48440;51.224;22.506;2023-11-21T03:48:08;98479.91;;;1.23;88.25
62402;BME280;48440;51.224;22.506;2023-11-21T03:50:34;98486.47;;;1.27;87.68
62402;BME280;48440;51.224;22.506;2023-11-21T03:53:00;98466.94;;;1.26;87.71
62402;BME280;48440;51.224;22.506;2023-11-21T03:55:25;98473.94;;;1.27;87.62
62402;BME280;48440;51.224;22.506;2023-11-21T03:57:51;98474.34;;;1.24;87.58
62402;BME280;48440;51.224;22.506;2023-11-21T04:00:17;98480.72;;;1.23;87.58
62402;BME280;48440;51.224;22.506;2023-11-21T04:02:43;98476.84;;;1.19;87.53
62402;BME280;48440;51.224;22.506;2023-11-21T04:05:08;98469.88;;;1.18;87.37
62402;BME280;48440;51.224;22.506;2023-11-21T04:07:34;98485.91;;;1.18;87.75
62402;BME280;48440;51.224;22.506;2023-11-21T04:10:00;98481.59;;;1.17;87.68
62402;BME280;48440;51.224;22.506;2023-11-21T04:12:25;98489.81;;;1.16;87.35
62402;BME280;48440;51.224;22.506;2023-11-21T04:14:51;98482.41;;;1.18;87.14
62402;BME280;48440;51.224;22.506;2023-11-21T04:17:19;98486.31;;;1.15;87.01
62402;BME280;48440;51.224;22.506;2023-11-21T04:19:45;98481.59;;;1.17;87.05
62402;BME280;48440;51.224;22.506;2023-11-21T04:22:11;98495.16;;;1.16;86.92
62402;BME280;48440;51.224;22.506;2023-11-21T04:24:36;98496.41;;;1.13;87.03
62402;BME280;48440;51.224;22.506;2023-11-21T04:27:02;98495.78;;;1.11;87.71
62402;BME280;48440;51.224;22.506;2023-11-21T04:29:28;98492.13;;;1.06;86.86
62402;BME280;48440;51.224;22.506;2023-11-21T04:31:54;98493.53;;;1.08;87.55
62402;BME280;48440;51.224;22.506;2023-11-21T04:34:19;98490.44;;;1.11;87.17
62402;BME280;48440;51.224;22.506;2023-11-21T04:36:44;98495.78;;;1.11;87.00
62402;BME280;48440;51.224;22.506;2023-11-21T04:39:10;98505.66;;;1.11;86.43
62402;BME280;48440;51.224;22.506;2023-11-21T04:41:36;98494.97;;;1.11;86.53
62402;BME280;48440;51.224;22.506;2023-11-21T04:44:05;98508.13;;;1.12;86.57
62402;BME280;48440;51.224;22.506;2023-11-21T04:46:30;98506.91;;;1.08;86.74
62402;BME280;48440;51.224;22.506;2023-11-21T04:48:57;98512.25;;;1.08;86.61
62402;BME280;48440;51.224;22.506;2023-11-21T04:51:23;98512.44;;;1.13;86.84
62402;BME280;48440;51.224;22.506;2023-11-21T04:53:48;98521.28;;;1.14;87.01
62402;BME280;48440;51.224;22.506;2023-11-21T04:56:14;98513.47;;;1.12;86.77
62402;BME280;48440;51.224;22.506;2023-11-21T04:58:39;98522.72;;;1.10;86.71
62402;BME280;48440;51.224;22.506;2023-11-21T05:01:06;98525.81;;;1.13;87.11
62402;BME280;48440;51.224;22.506;2023-11-21T05:03:33;98530.13;;;1.14;86.68
62402;BME280;48440;51.224;22.506;2023-11-21T05:05:59;98520.66;;;1.12;85.64
62402;BME280;48440;51.224;22.506;2023-11-21T05:08:25;98533.84;;;1.07;85.92
62402;BME280;48440;51.224;22.506;2023-11-21T05:10:51;98529.97;;;1.02;86.11
62402;BME280;48440;51.224;22.506;2023-11-21T05:13:17;98533.69;;;1.01;86.27
62402;BME280;48440;51.224;22.506;2023-11-21T05:15:43;98518.25;;;1.04;86.79
62402;BME280;48440;51.224;22.506;2023-11-21T05:18:09;98523.00;;;1.01;86.64
62402;BME280;48440;51.224;22.506;2023-11-21T05:20:35;98524.84;;;1.01;87.23
62402;BME280;48440;51.224;22.506;2023-11-21T05:23:01;98523.00;;;1.01;86.95
62402;BME280;48440;51.224;22.506;2023-11-21T05:25:27;98524.41;;;1.04;87.33
62402;BME280;48440;51.224;22.506;2023-11-21T05:27:52;98523.59;;;1.04;87.35
62402;BME280;48440;51.224;22.506;2023-11-21T05:30:22;98536.34;;;1.01;87.48
62402;BME280;48440;51.224;22.506;2023-11-21T05:32:47;98535.75;;;0.99;87.34
62402;BME280;48440;51.224;22.506;2023-11-21T05:35:12;98530.59;;;0.98;87.27
62402;BME280;48440;51.224;22.506;2023-11-21T05:37:41;98531.63;;;0.97;87.50
62402;BME280;48440;51.224;22.506;2023-11-21T05:40:08;98533.28;;;0.98;87.39
62402;BME280;48440;51.224;22.506;2023-11-21T05:42:34;98529.78;;;0.97;87.52
62402;BME280;48440;51.224;22.506;2023-11-21T05:45:00;98540.91;;;0.94;87.21
62402;BME280;48440;51.224;22.506;2023-11-21T05:47:37;98551.38;;;0.96;87.49
62402;BME280;48440;51.224;22.506;2023-11-21T05:50:04;98547.25;;;1.00;87.36
62402;BME280;48440;51.224;22.506;2023-11-21T05:52:31;98551.56;;;1.01;87.56
62402;BME280;48440;51.224;22.506;2023-11-21T05:54:57;98556.47;;;1.04;87.45
62402;BME280;48440;51.224;22.506;2023-11-21T05:57:23;98562.22;;;1.08;86.47
62402;BME280;48440;51.224;22.506;2023-11-21T05:59:48;98565.28;;;1.05;86.62
62402;BME280;48440;51.224;22.506;2023-11-21T06:02:14;98566.13;;;1.05;86.04
62402;BME280;48440;51.224;22.506;2023-11-21T06:04:39;98569.81;;;1.04;86.44
62402;BME280;48440;51.224;22.506;2023-11-21T06:07:05;98570.88;;;1.03;86.29
62402;BME280;48440;51.224;22.506;2023-11-21T06:09:30;98571.09;;;1.01;86.48
62402;BME280;48440;51.224;22.506;2023-11-21T06:11:56;98579.94;;;1.02;86.54
62402;BME280;48440;51.224;22.506;2023-11-21T06:14:21;98571.91;;;1.02;86.57
62402;BME280;48440;51.224;22.506;2023-11-21T06:16:47;98582.00;;;1.00;86.71
62402;BME280;48440;51.224;22.506;2023-11-21T06:19:12;98582.59;;;1.02;86.87
62402;BME280;48440;51.224;22.506;2023-11-21T06:21:38;98584.00;;;1.05;86.38
62402;BME280;48440;51.224;22.506;2023-11-21T06:24:04;98592.63;;;1.07;86.80
62402;BME280;48440;51.224;22.506;2023-11-21T06:26:29;98598.78;;;1.07;86.53
62402;BME280;48440;51.224;22.506;2023-11-21T06:28:57;98597.34;;;1.11;85.96
62402;BME280;48440;51.224;22.506;2023-11-21T06:31:22;98595.91;;;1.09;85.92
62402;BME280;48440;51.224;22.506;2023-11-21T06:33:48;98600.66;;;1.07;85.60
62402;BME280;48440;51.224;22.506;2023-11-21T06:36:13;98603.78;;;1.04;85.61
62402;BME280;48440;51.224;22.506;2023-11-21T06:38:39;98600.84;;;1.05;84.94
62402;BME280;48440;51.224;22.506;2023-11-21T06:41:04;98600.84;;;1.05;85.56
62402;BME280;48440;51.224;22.506;2023-11-21T06:43:30;98602.28;;;1.08;85.42
62402;BME280;48440;51.224;22.506;2023-11-21T06:45:58;98598.59;;;1.09;85.05
62402;BME280;48440;51.224;22.506;2023-11-21T06:48:24;98607.47;;;1.02;85.34
62402;BME280;48440;51.224;22.506;2023-11-21T06:50:49;98604.81;;;1.02;85.28
62402;BME280;48440;51.224;22.506;2023-11-21T06:53:14;98603.97;;;1.02;85.37
62402;BME280;48440;51.224;22.506;2023-11-21T06:55:40;98605.00;;;1.01;85.33
62402;BME280;48440;51.224;22.506;2023-11-21T06:58:05;98608.28;;;1.03;85.33
62402;BME280;48440;51.224;22.506;2023-11-21T07:00:31;98617.75;;;0.99;85.22
62402;BME280;48440;51.224;22.506;2023-11-21T07:02:56;98607.47;;;0.96;84.95
62402;BME280;48440;51.224;22.506;2023-11-21T07:05:22;98607.28;;;0.97;85.63
62402;BME280;48440;51.224;22.506;2023-11-21T07:07:48;98607.69;;;1.01;85.35
62402;BME280;48440;51.224;22.506;2023-11-21T07:10:14;98614.22;;;1.05;84.96
62402;BME280;48440;51.224;22.506;2023-11-21T07:12:40;98634.59;;;0.99;84.92
62402;BME280;48440;51.224;22.506;2023-11-21T07:15:06;98635.84;;;0.97;85.17
62402;BME280;48440;51.224;22.506;2023-11-21T07:17:35;98635.03;;;0.96;85.34
62402;BME280;48440;51.224;22.506;2023-11-21T07:20:01;98635.84;;;0.97;85.23
62402;BME280;48440;51.224;22.506;2023-11-21T07:22:27;98634.59;;;0.99;85.65
62402;BME280;48440;51.224;22.506;2023-11-21T07:24:52;98637.28;;;0.99;85.45
62402;BME280;48440;51.224;22.506;2023-11-21T07:27:18;98638.72;;;1.02;85.72
62402;BME280;48440;51.224;22.506;2023-11-21T07:29:44;98635.59;;;1.05;85.31
62402;BME280;48440;51.224;22.506;2023-11-21T07:32:09;98636.22;;;1.07;84.90
62402;BME280;48440;51.224;22.506;2023-11-21T07:34:35;98638.50;;;1.04;85.49
62402;BME280;48440;51.224;22.506;2023-11-21T07:37:01;98640.13;;;1.05;85.32
62402;BME280;48440;51.224;22.506;2023-11-21T07:39:27;98640.94;;;1.05;85.44
62402;BME280;48440;51.224;22.506;2023-11-21T07:41:52;98633.75;;;1.06;85.05
62402;BME280;48440;51.224;22.506;2023-11-21T07:44:17;98638.06;;;1.07;84.83
62402;BME280;48440;51.224;22.506;2023-11-21T07:46:43;98635.59;;;1.12;84.57
62402;BME280;48440;51.224;22.506;2023-11-21T07:49:09;98644.44;;;1.12;84.52
62402;BME280;48440;51.224;22.506;2023-11-21T07:51:35;98639.91;;;1.13;85.03
62402;BME280;48440;51.224;22.506;2023-11-21T07:54:00;98643.59;;;1.12;84.40
62402;BME280;48440;51.224;22.506;2023-11-21T07:56:25;98651.00;;;1.10;84.38
62402;BME280;48440;51.224;22.506;2023-11-21T07:58:51;98647.72;;;1.08;84.70
62402;BME280;48440;51.224;22.506;2023-11-21T08:01:17;98646.06;;;1.07;84.65
62402;BME280;48440;51.224;22.506;2023-11-21T08:03:42;98649.38;;;1.09;84.57
62402;BME280;48440;51.224;22.506;2023-11-21T08:06:09;98648.75;;;1.07;84.63
62402;BME280;48440;51.224;22.506;2023-11-21T08:08:34;98655.94;;;1.13;84.39
62402;BME280;48440;51.224;22.506;2023-11-21T08:11:00;98645.44;;;1.11;84.06
62402;BME280;48440;51.224;22.506;2023-11-21T08:13:27;98656.75;;;1.13;84.33
62402;BME280;48440;51.224;22.506;2023-11-21T08:15:59;98657.78;;;1.12;84.30
62402;BME280;48440;51.224;22.506;2023-11-21T08:18:28;98664.78;;;1.13;84.04
62402;BME280;48440;51.224;22.506;2023-11-21T08:20:54;98668.06;;;1.15;83.87
62402;BME280;48440;51.224;22.506;2023-11-21T08:23:20;98667.88;;;1.10;83.65
62402;BME280;48440;51.224;22.506;2023-11-21T08:25:46;98672.59;;;1.08;83.97
62402;BME280;48440;51.224;22.506;2023-11-21T08:28:12;98671.78;;;1.08;84.01
62402;BME280;48440;51.224;22.506;2023-11-21T08:30:39;98667.03;;;1.10;84.34
62402;BME280;48440;51.224;22.506;2023-11-21T08:33:07;98668.06;;;1.09;84.62
62402;BME280;48440;51.224;22.506;2023-11-21T08:35:34;98661.09;;;1.08;84.71
62402;BME280;48440;51.224;22.506;2023-11-21T08:37:59;98671.38;;;1.04;84.77
62402;BME280;48440;51.224;22.506;2023-11-21T08:40:25;98666.03;;;1.04;84.85
62402;BME280;48440;51.224;22.506;2023-11-21T08:42:50;98668.69;;;1.04;84.88
62402;BME280;48440;51.224;22.506;2023-11-21T08:45:19;98672.63;;;1.01;85.87
62402;BME280;48440;51.224;22.506;2023-11-21T08:47:45;98670.34;;;1.05;85.57
62402;BME280;48440;51.224;22.506;2023-11-21T08:50:10;98676.09;;;1.09;84.95
62402;BME280;48440;51.224;22.506;2023-11-21T08:52:38;98677.13;;;1.08;84.78
62402;BME280;48440;51.224;22.506;2023-11-21T08:55:04;98683.91;;;1.10;84.23
62402;BME280;48440;51.224;22.506;2023-11-21T08:57:36;98688.00;;;1.13;84.37
62402;BME280;48440;51.224;22.506;2023-11-21T09:00:06;98678.75;;;1.09;84.17
62402;BME280;48440;51.224;22.506;2023-11-21T09:02:35;98688.00;;;1.06;84.49
62402;BME280;48440;51.224;22.506;2023-11-21T09:05:03;98686.97;;;1.07;84.26
62402;BME280;48440;51.224;22.506;2023-11-21T09:07:29;98681.84;;;1.06;84.13
62402;BME280;48440;51.224;22.506;2023-11-21T09:09:54;98681.63;;;1.07;83.82
62402;BME280;48440;51.224;22.506;2023-11-21T09:12:20;98683.94;;;1.04;84.33
62402;BME280;48440;51.224;22.506;2023-11-21T09:14:46;98679.19;;;1.06;84.40
62402;BME280;48440;51.224;22.506;2023-11-21T09:17:11;98675.25;;;1.08;84.24
62402;BME280;48440;51.224;22.506;2023-11-21T09:19:37;98679.59;;;1.09;84.36
62402;BME280;48440;51.224;22.506;2023-11-21T09:22:03;98692.13;;;1.09;84.78
62402;BME280;48440;51.224;22.506;2023-11-21T09:24:30;98690.47;;;1.08;84.24
62402;BME280;48440;51.224;22.506;2023-11-21T09:26:56;98704.03;;;1.13;83.94
62402;BME280;48440;51.224;22.506;2023-11-21T09:29:23;98707.53;;;1.13;83.63
62402;BME280;48440;51.224;22.506;2023-11-21T09:31:52;98703.84;;;1.08;83.39
62402;BME280;48440;51.224;22.506;2023-11-21T09:34:17;98703.03;;;1.07;83.73
62402;BME280;48440;51.224;22.506;2023-11-21T09:36:47;98707.53;;;1.07;83.65
62402;BME280;48440;51.224;22.506;2023-11-21T09:39:13;98720.69;;;1.08;83.93
62402;BME280;48440;51.224;22.506;2023-11-21T09:41:54;98711.66;;;1.09;83.71
62402;BME280;48440;51.224;22.506;2023-11-21T09:44:30;98716.78;;;1.04;83.89
62402;BME280;48440;51.224;22.506;2023-11-21T09:47:01;98721.72;;;1.07;83.82
62402;BME280;48440;51.224;22.506;2023-11-21T09:49:28;98715.38;;;1.01;83.77
62402;BME280;48440;51.224;22.506;2023-11-21T09:51:55;98716.41;;;1.00;84.25
62402;BME280;48440;51.224;22.506;2023-11-21T09:54:29;98709.63;;;0.98;84.48
62402;BME280;48440;51.224;22.506;2023-11-21T09:56:59;98711.06;;;1.00;84.67
62402;BME280;48440;51.224;22.506;2023-11-21T09:59:30;98713.53;;;1.02;84.22
62402;BME280;48440;51.224;22.506;2023-11-21T10:01:56;98714.34;;;1.02;84.21
62402;BME280;48440;51.224;22.506;2023-11-21T10:04:23;98716.78;;;1.04;84.39
62402;BME280;48440;51.224;22.506;2023-11-21T10:06:52;98715.19;;;1.03;84.19
62402;BME280;48440;51.224;22.506;2023-11-21T10:09:21;98708.78;;;1.04;84.07
62402;BME280;48440;51.224;22.506;2023-11-21T10:11:57;98711.84;;;1.08;83.80
62402;BME280;48440;51.224;22.506;2023-11-21T10:14:31;98712.47;;;1.10;84.00
62402;BME280;48440;51.224;22.506;2023-11-21T10:16:57;98711.44;;;1.11;83.71
62402;BME280;48440;51.224;22.506;2023-11-21T10:19:23;98711.25;;;1.12;83.81
62402;BME280;48440;51.224;22.506;2023-11-21T10:21:50;98714.53;;;1.14;83.52
62402;BME280;48440;51.224;22.506;2023-11-21T10:24:16;98714.94;;;1.18;82.88
62402;BME280;48440;51.224;22.506;2023-11-21T10:26:43;98713.72;;;1.14;83.55
62402;BME280;48440;51.224;22.506;2023-11-21T10:29:16;98707.53;;;1.13;83.28
62402;BME280;48440;51.224;22.506;2023-11-21T10:31:43;98708.16;;;1.15;83.58
62402;BME280;48440;51.224;22.506;2023-11-21T10:34:18;98704.25;;;1.18;83.76
62402;BME280;48440;51.224;22.506;2023-11-21T10:36:44;98705.28;;;1.17;83.52
62402;BME280;48440;51.224;22.506;2023-11-21T10:39:14;98710.41;;;1.18;83.63
62402;BME280;48440;51.224;22.506;2023-11-21T10:41:44;98704.66;;;1.21;82.95
62402;BME280;48440;51.224;22.506;2023-11-21T10:44:10;98707.13;;;1.16;83.12
62402;BME280;48440;51.224;22.506;2023-11-21T10:46:36;98702.00;;;1.08;82.98
62402;BME280;48440;51.224;22.506;2023-11-21T10:49:04;98697.47;;;1.09;83.23
62402;BME280;48440;51.224;22.506;2023-11-21T10:51:30;98703.63;;;1.09;82.45
62402;BME280;48440;51.224;22.506;2023-11-21T10:53:55;98702.81;;;1.09;82.32
62402;BME280;48440;51.224;22.506;2023-11-21T10:56:23;98713.50;;;1.09;82.97
62402;BME280;48440;51.224;22.506;2023-11-21T10:58:49;98718.22;;;1.07;83.12
62402;BME280;48440;51.224;22.506;2023-11-21T11:01:19;98714.13;;;1.11;82.27
62402;BME280;48440;51.224;22.506;2023-11-21T11:03:49;98702.81;;;1.09;82.34
62402;BME280;48440;51.224;22.506;2023-11-21T11:06:16;98708.38;;;1.07;82.65
62402;BME280;48440;51.224;22.506;2023-11-21T11:08:41;98709.81;;;1.10;82.97
62402;BME280;48440;51.224;22.506;2023-11-21T11:11:08;98715.34;;;1.08;82.72
62402;BME280;48440;51.224;22.506;2023-11-21T11:13:35;98715.16;;;1.10;82.56
62402;BME280;48440;51.224;22.506;2023-11-21T11:16:03;98704.88;;;1.07;82.18
62402;BME280;48440;51.224;22.506;2023-11-21T11:18:33;98705.91;;;1.06;82.36
62402;BME280;48440;51.224;22.506;2023-11-21T11:29:35;98716.22;;;1.02;82.46
62402;BME280;48440;51.224;22.506;2023-11-21T11:32:27;98710.22;;;1.07;81.86
62402;BME280;48440;51.224;22.506;2023-11-21T11:35:22;98716.16;;;1.09;82.25
62402;BME280;48440;51.224;22.506;2023-11-21T11:37:53;98722.53;;;1.08;81.94
62402;BME280;48440;51.224;22.506;2023-11-21T11:40:22;98724.03;;;1.04;82.53
62402;BME280;48440;51.224;22.506;2023-11-21T11:43:06;98724.03;;;1.04;82.55
62402;BME280;48440;51.224;22.506;2023-11-21T11:46:03;98725.88;;;1.03;82.91
62402;BME280;48440;51.224;22.506;2023-11-21T11:48:35;98732.25;;;1.02;82.87
62402;BME280;48440;51.224;22.506;2023-11-21T11:51:16;98731.41;;;1.01;82.82
62402;BME280;48440;51.224;22.506;2023-11-21T11:56:34;98735.13;;;1.00;83.12
62402;BME280;48440;51.224;22.506;2023-11-21T11:59:05;98732.84;;;0.97;83.19
62402;BME280;48440;51.224;22.506;2023-11-21T12:01:48;98738.19;;;0.97;83.63
62402;BME280;48440;51.224;22.506;2023-11-21T12:04:24;98737.16;;;0.98;84.13
62402;BME280;48440;51.224;22.506;2023-11-21T12:07:19;98744.56;;;0.96;84.26
62402;BME280;48440;51.224;22.506;2023-11-21T12:10:14;98745.59;;;0.95;84.42
62402;BME280;48440;51.224;22.506;2023-11-21T12:13:11;98749.09;;;0.96;84.85
62402;BME280;48440;51.224;22.506;2023-11-21T12:18:33;98759.38;;;0.99;83.88
62402;BME280;48440;51.224;22.506;2023-11-21T12:21:01;98756.91;;;0.97;83.83
62402;BME280;48440;51.224;22.506;2023-11-21T12:23:53;98761.41;;;0.97;83.94
62402;BME280;48440;51.224;22.506;2023-11-21T12:26:26;98764.72;;;0.99;83.66
62402;BME280;48440;51.224;22.506;2023-11-21T12:29:11;98764.72;;;0.99;83.92
62402;BME280;48440;51.224;22.506;2023-11-21T12:31:37;98762.66;;;1.01;84.00
62402;BME280;48440;51.224;22.506;2023-11-21T12:34:25;98764.09;;;0.97;83.02
62402;BME280;48440;51.224;22.506;2023-11-21T12:37:13;98771.50;;;0.95;84.02
62402;BME280;48440;51.224;22.506;2023-11-21T12:39:38;98777.88;;;0.94;84.09
62402;BME280;48440;51.224;22.506;2023-11-21T12:42:04;98773.75;;;0.91;84.22
62402;BME280;48440;51.224;22.506;2023-11-21T12:44:29;98771.06;;;0.91;84.29
62402;BME280;48440;51.224;22.506;2023-11-21T12:46:55;98778.06;;;0.92;84.59
62402;BME280;48440;51.224;22.506;2023-11-21T12:49:21;98781.75;;;0.91;84.40
62402;BME280;48440;51.224;22.506;2023-11-21T12:51:47;98781.75;;;0.91;84.44
62402;BME280;48440;51.224;22.506;2023-11-21T12:54:13;98788.34;;;0.89;84.92
62402;BME280;48440;51.224;22.506;2023-11-21T12:56:39;98788.97;;;0.91;84.50
62402;BME280;48440;51.224;22.506;2023-11-21T12:59:04;98793.28;;;0.92;83.97
62402;BME280;48440;51.224;22.506;2023-11-21T13:01:30;98793.06;;;0.87;84.19
62402;BME280;48440;51.224;22.506;2023-11-21T13:03:57;98799.03;;;0.89;83.87
62402;BME280;48440;51.224;22.506;2023-11-21T13:06:27;98798.00;;;0.90;83.63
62402;BME280;48440;51.224;22.506;2023-11-21T13:08:54;98807.88;;;0.89;84.21
62402;BME280;48440;51.224;22.506;2023-11-21T13:11:22;98802.31;;;0.91;83.76
62402;BME280;48440;51.224;22.506;2023-11-21T13:13:51;98811.56;;;0.88;83.91
62402;BME280;48440;51.224;22.506;2023-11-21T13:16:18;98810.53;;;0.89;84.21